Syosyun — JD2406 — position and weather

sailwx.info

Track history (hours):
 
Tides and Currents Weather Stations Pressure Air Temp Water Temp Dewpoint Dewpoint Depression Visibility Wind Speed Wind Dir Waves Ship Positions

Syosyun

Last reported at 2016-Aug-14 20:17 UTC. Time now 2016-Aug-28 14:06 UTC.
Position N 35°02' E 138°31'.
Warning: this ship's position is 13 days out of date.

Length 74 m; draft 3.4 m.

Type: Cargo ship. MMSI: 431000201.

Date/timePositionNaut miles runAvg speedWind from/ knotsBaromVisibWave heightAir tempDewpointWater temp
2016-Aug-14 20:17N 35°02' E 138°31'0 0.0
2016-Aug-14 19:11N 35°02' E 138°31'0 0.0
2016-Aug-14 18:11N 35°02' E 138°31'0 0.0
2016-Aug-14 17:29N 35°02' E 138°31'0 0.0
2016-Aug-14 16:29N 35°02' E 138°31'0 0.0
2016-Aug-14 14:29N 35°02' E 138°31'  
2016-Aug-12 06:30N 35°06' E 139°37'1111.7
2016-Aug-12 05:33N 35°14' E 139°46'1111.3
2016-Aug-12 04:33N 35°25' E 139°43'1211.5
2016-Aug-12 03:33N 35°33' E 139°54'9 9.1
2016-Aug-12 02:33N 35°41' E 139°58'0 0.0
2016-Aug-12 01:31N 35°41' E 139°58'0 0.0
2016-Aug-12 00:31N 35°41' E 139°58'0 0.0
2016-Aug-11 23:22N 35°41' E 139°58'0 0.0
2016-Aug-11 22:28N 35°41' E 139°58'0 0.0
2016-Aug-11 21:22N 35°41' E 139°58'0 0.0
2016-Aug-11 20:28N 35°41' E 139°58'0 0.0
2016-Aug-11 19:22N 35°41' E 139°58'0 0.0
2016-Aug-11 18:28N 35°41' E 139°58'0 0.0
2016-Aug-11 17:22N 35°41' E 139°58'0 0.0
2016-Aug-11 16:22N 35°41' E 139°58'0 0.0
2016-Aug-11 15:28N 35°41' E 139°58'0 0.0
2016-Aug-11 14:22N 35°41' E 139°58'0 0.0
2016-Aug-11 13:04N 35°41' E 139°58'0 0.0
2016-Aug-11 12:28N 35°41' E 139°58'0 0.0
2016-Aug-11 11:28N 35°41' E 139°58'0 0.0
2016-Aug-11 10:28N 35°41' E 139°58'0 0.0
2016-Aug-11 09:28N 35°41' E 139°58'0 0.0
2016-Aug-11 08:28N 35°41' E 139°58'0 0.0
2016-Aug-11 07:34N 35°41' E 139°58'0 0.0
2016-Aug-11 06:28N 35°41' E 139°58'0 0.0
2016-Aug-11 05:28N 35°41' E 139°58'0 0.0
2016-Aug-11 04:22N 35°41' E 139°58'0 0.0
2016-Aug-11 03:28N 35°41' E 139°58'0 0.0
2016-Aug-11 02:31N 35°41' E 139°58'2 1.8
2016-Aug-11 01:32N 35°40' E 139°56'0 0.0
2016-Aug-11 00:32N 35°40' E 139°56'0 0.0
2016-Aug-10 23:23N 35°40' E 139°56'0 0.0
2016-Aug-10 22:26N 35°40' E 139°56'3 3.4
2016-Aug-10 21:33N 35°38' E 139°58'2 1.6
2016-Aug-10 20:32N 35°37' E 139°58'0 0.0
2016-Aug-10 19:32N 35°37' E 139°58'0 0.0
2016-Aug-10 18:32N 35°37' E 139°58'0 0.0
2016-Aug-10 17:32N 35°37' E 139°58'0 0.0
2016-Aug-10 16:32N 35°37' E 139°58'0 0.0
2016-Aug-10 15:20N 35°37' E 139°58'0 0.0
2016-Aug-10 14:14N 35°37' E 139°58'0 0.0
2016-Aug-10 13:32N 35°37' E 139°58'0 0.0
2016-Aug-10 12:32N 35°37' E 139°58'0 0.0
2016-Aug-10 11:32N 35°37' E 139°58'0 0.0
2016-Aug-10 10:32N 35°37' E 139°58'0 0.0
2016-Aug-10 09:32N 35°37' E 139°58'0 0.0
2016-Aug-10 08:32N 35°37' E 139°58'0 0.0
2016-Aug-10 07:29N 35°37' E 139°58'0 0.0
2016-Aug-10 06:32N 35°37' E 139°58'0 0.0
2016-Aug-10 05:32N 35°37' E 139°58'9 9.5
2016-Aug-10 04:33N 35°30' E 139°50'7 7.1
2016-Aug-10 03:33N 35°27' E 139°42'3 2.7
2016-Aug-10 02:31N 35°29' E 139°39'0 0.0
2016-Aug-10 01:31N 35°29' E 139°39'0 0.1
2016-Aug-10 00:33N 35°29' E 139°39'9 8.6
2016-Aug-09 23:33N 35°20' E 139°43'1010.2
2016-Aug-09 22:33N 35°11' E 139°47'2110.5
2016-Aug-09 20:31N 34°55' E 139°28'  
Track history (hours):
 
Tides and Currents Weather Stations Pressure Air Temp Water Temp Dewpoint Dewpoint Depression Visibility Wind Speed Wind Dir Waves Ship Positions

Syosyun

Last reported at 2016-Aug-14 20:17 UTC. Time now 2016-Aug-28 14:06 UTC.
Position N 35°02' E 138°31'.
Warning: this ship's position is 13 days out of date.

Length 74 m; draft 3.4 m.

Type: Cargo ship. MMSI: 431000201.

Date/timePositionNaut miles runAvg speedWind from/ knotsBaromVisibWave heightAir tempDewpointWater temp
2016-Aug-14 20:17N 35°02' E 138°31'0 0.0
2016-Aug-14 19:11N 35°02' E 138°31'0 0.0
2016-Aug-14 18:11N 35°02' E 138°31'0 0.0
2016-Aug-14 17:29N 35°02' E 138°31'0 0.0
2016-Aug-14 16:29N 35°02' E 138°31'0 0.0
2016-Aug-14 14:29N 35°02' E 138°31'  
2016-Aug-12 06:30N 35°06' E 139°37'1111.7
2016-Aug-12 05:33N 35°14' E 139°46'1111.3
2016-Aug-12 04:33N 35°25' E 139°43'1211.5
2016-Aug-12 03:33N 35°33' E 139°54'9 9.1
2016-Aug-12 02:33N 35°41' E 139°58'0 0.0
2016-Aug-12 01:31N 35°41' E 139°58'0 0.0
2016-Aug-12 00:31N 35°41' E 139°58'0 0.0
2016-Aug-11 23:22N 35°41' E 139°58'0 0.0
2016-Aug-11 22:28N 35°41' E 139°58'0 0.0
2016-Aug-11 21:22N 35°41' E 139°58'0 0.0
2016-Aug-11 20:28N 35°41' E 139°58'0 0.0
2016-Aug-11 19:22N 35°41' E 139°58'0 0.0
2016-Aug-11 18:28N 35°41' E 139°58'0 0.0
2016-Aug-11 17:22N 35°41' E 139°58'0 0.0
2016-Aug-11 16:22N 35°41' E 139°58'0 0.0
2016-Aug-11 15:28N 35°41' E 139°58'0 0.0
2016-Aug-11 14:22N 35°41' E 139°58'0 0.0
2016-Aug-11 13:04N 35°41' E 139°58'0 0.0
2016-Aug-11 12:28N 35°41' E 139°58'0 0.0
2016-Aug-11 11:28N 35°41' E 139°58'0 0.0
2016-Aug-11 10:28N 35°41' E 139°58'0 0.0
2016-Aug-11 09:28N 35°41' E 139°58'0 0.0
2016-Aug-11 08:28N 35°41' E 139°58'0 0.0
2016-Aug-11 07:34N 35°41' E 139°58'0 0.0
2016-Aug-11 06:28N 35°41' E 139°58'0 0.0
2016-Aug-11 05:28N 35°41' E 139°58'0 0.0
2016-Aug-11 04:22N 35°41' E 139°58'0 0.0
2016-Aug-11 03:28N 35°41' E 139°58'0 0.0
2016-Aug-11 02:31N 35°41' E 139°58'2 1.8
2016-Aug-11 01:32N 35°40' E 139°56'0 0.0
2016-Aug-11 00:32N 35°40' E 139°56'0 0.0
2016-Aug-10 23:23N 35°40' E 139°56'0 0.0
2016-Aug-10 22:26N 35°40' E 139°56'3 3.4
2016-Aug-10 21:33N 35°38' E 139°58'2 1.6
2016-Aug-10 20:32N 35°37' E 139°58'0 0.0
2016-Aug-10 19:32N 35°37' E 139°58'0 0.0
2016-Aug-10 18:32N 35°37' E 139°58'0 0.0
2016-Aug-10 17:32N 35°37' E 139°58'0 0.0
2016-Aug-10 16:32N 35°37' E 139°58'0 0.0
2016-Aug-10 15:20N 35°37' E 139°58'0 0.0
2016-Aug-10 14:14N 35°37' E 139°58'0 0.0
2016-Aug-10 13:32N 35°37' E 139°58'0 0.0
2016-Aug-10 12:32N 35°37' E 139°58'0 0.0
2016-Aug-10 11:32N 35°37' E 139°58'0 0.0
2016-Aug-10 10:32N 35°37' E 139°58'0 0.0
2016-Aug-10 09:32N 35°37' E 139°58'0 0.0
2016-Aug-10 08:32N 35°37' E 139°58'0 0.0
2016-Aug-10 07:29N 35°37' E 139°58'0 0.0
2016-Aug-10 06:32N 35°37' E 139°58'0 0.0
2016-Aug-10 05:32N 35°37' E 139°58'9 9.5
2016-Aug-10 04:33N 35°30' E 139°50'7 7.1
2016-Aug-10 03:33N 35°27' E 139°42'3 2.7
2016-Aug-10 02:31N 35°29' E 139°39'0 0.0
2016-Aug-10 01:31N 35°29' E 139°39'0 0.1
2016-Aug-10 00:33N 35°29' E 139°39'9 8.6
2016-Aug-09 23:33N 35°20' E 139°43'1010.2
2016-Aug-09 22:33N 35°11' E 139°47'2110.5
2016-Aug-09 20:31N 34°55' E 139°28'  

Dump ship's entire track history